createdAt,value
2019-01-03T00:00:33.279Z,0.00
2019-01-03T00:01:33.291Z,0.00
2019-01-03T00:02:33.292Z,0.00
2019-01-03T00:03:33.306Z,0.00
2019-01-03T00:04:33.308Z,0.00
2019-01-03T00:05:33.320Z,0.00
2019-01-03T00:06:33.335Z,0.00
2019-01-03T00:07:33.336Z,0.00
2019-01-03T00:08:33.350Z,0.00
2019-01-03T00:09:33.350Z,0.00
2019-01-03T00:10:33.365Z,0.00
2019-01-03T00:11:33.377Z,0.00
2019-01-03T00:12:33.378Z,0.00
2019-01-03T00:13:33.392Z,0.00
2019-01-03T00:14:33.394Z,0.00
2019-01-03T00:15:33.407Z,0.00
2019-01-03T00:16:33.420Z,0.00
2019-01-03T00:17:33.422Z,0.00
2019-01-03T00:18:33.435Z,0.00
2019-01-03T00:19:33.435Z,0.00
2019-01-03T00:20:33.450Z,0.00
2019-01-03T00:21:33.462Z,0.00
2019-01-03T00:22:33.463Z,0.00
2019-01-03T00:23:33.476Z,0.00
2019-01-03T00:24:33.478Z,0.00
2019-01-03T00:25:33.490Z,0.00
2019-01-03T00:26:33.494Z,0.00
2019-01-03T00:27:33.506Z,0.00
2019-01-03T00:28:35.973Z,0.00
2019-01-03T00:29:33.520Z,0.00
2019-01-03T00:30:33.534Z,0.00
2019-01-03T00:31:33.536Z,0.00
2019-01-03T00:32:33.561Z,0.00
2019-01-03T00:33:33.563Z,0.00
2019-01-03T00:34:33.563Z,0.00
2019-01-03T00:35:33.576Z,0.00
2019-01-03T00:36:33.577Z,0.00
2019-01-03T00:37:33.593Z,0.00
2019-01-03T00:38:33.620Z,0.00
2019-01-03T00:39:33.606Z,0.00
2019-01-03T00:40:33.620Z,0.00
2019-01-03T00:41:33.623Z,0.00
2019-01-03T00:42:33.633Z,0.00
2019-01-03T00:43:33.648Z,0.00
2019-01-03T00:44:33.649Z,0.00
2019-01-03T00:45:33.661Z,0.00
2019-01-03T00:46:33.662Z,0.00
2019-01-03T00:47:33.677Z,0.00
2019-01-03T00:48:33.690Z,0.00
2019-01-03T00:49:33.692Z,0.00
2019-01-03T00:50:33.705Z,0.00
2019-01-03T00:51:33.706Z,0.00
2019-01-03T00:52:33.719Z,0.00
2019-01-03T00:53:33.722Z,0.00
2019-01-03T00:54:33.735Z,0.00
2019-01-03T00:55:33.746Z,0.00
2019-01-03T00:56:33.748Z,0.00
2019-01-03T00:57:33.763Z,0.00
2019-01-03T00:58:33.775Z,0.00
2019-01-03T00:59:33.777Z,0.00
2019-01-03T01:00:33.796Z,0.00
2019-01-03T01:01:33.834Z,0.00
2019-01-03T01:02:33.804Z,0.00
2019-01-03T01:03:33.806Z,0.00
2019-01-03T01:04:33.823Z,0.00
2019-01-03T01:05:33.832Z,0.00
2019-01-03T01:06:33.835Z,0.00
2019-01-03T01:07:33.847Z,0.00
2019-01-03T01:08:33.848Z,0.00
2019-01-03T01:09:33.862Z,0.00
2019-01-03T01:10:33.878Z,0.00
2019-01-03T01:11:33.878Z,0.00
2019-01-03T01:12:33.890Z,0.00
2019-01-03T01:13:33.890Z,0.00
2019-01-03T01:14:33.906Z,0.00
2019-01-03T01:15:33.919Z,0.00
2019-01-03T01:16:33.918Z,0.00
2019-01-03T01:17:33.933Z,0.00
2019-01-03T01:18:33.934Z,0.00
2019-01-03T01:19:33.985Z,0.00
2019-01-03T01:20:33.950Z,0.00
2019-01-03T01:21:33.966Z,0.00
2019-01-03T01:22:33.975Z,0.00
2019-01-03T01:23:33.977Z,0.00
2019-01-03T01:24:33.993Z,0.00
2019-01-03T01:25:33.991Z,0.00
2019-01-03T01:26:34.017Z,0.00
2019-01-03T01:27:34.018Z,0.00
2019-01-03T01:28:34.018Z,0.00
2019-01-03T01:29:34.031Z,0.00
2019-01-03T01:30:34.034Z,0.00
2019-01-03T01:31:34.049Z,0.00
2019-01-03T01:32:34.073Z,0.00
2019-01-03T01:33:34.062Z,0.00
2019-01-03T01:34:34.075Z,0.00
2019-01-03T01:35:34.079Z,0.00
2019-01-03T01:36:34.089Z,0.00
2019-01-03T01:37:34.104Z,0.00
2019-01-03T01:38:34.105Z,0.00
2019-01-03T01:39:34.117Z,0.00
2019-01-03T01:40:34.119Z,0.00
2019-01-03T01:41:34.134Z,0.00
2019-01-03T01:42:34.145Z,0.00
2019-01-03T01:43:34.146Z,0.00
2019-01-03T01:44:34.161Z,0.00
2019-01-03T01:45:34.162Z,0.00
2019-01-03T01:46:34.176Z,0.00
2019-01-03T01:47:34.190Z,0.00
2019-01-03T01:48:34.191Z,0.00
2019-01-03T01:49:34.203Z,0.00
2019-01-03T01:50:34.205Z,0.00
2019-01-03T01:51:34.218Z,0.00
2019-01-03T01:52:34.232Z,0.00
2019-01-03T01:53:34.233Z,0.00
2019-01-03T01:54:34.246Z,0.00
2019-01-03T01:55:34.247Z,0.00
2019-01-03T01:56:34.260Z,0.00
2019-01-03T01:57:34.279Z,0.00
2019-01-03T01:58:34.279Z,0.00
2019-01-03T01:59:34.288Z,0.00
2019-01-03T02:00:34.289Z,0.00
2019-01-03T02:01:34.303Z,0.00
2019-01-03T02:02:34.316Z,0.00
2019-01-03T02:03:34.316Z,0.00
2019-01-03T02:04:34.331Z,0.00
2019-01-03T02:05:34.344Z,0.00
2019-01-03T02:06:34.345Z,0.00
2019-01-03T02:07:34.358Z,0.00
2019-01-03T02:08:34.360Z,0.00
2019-01-03T02:09:34.374Z,0.00
2019-01-03T02:10:34.375Z,0.00
2019-01-03T02:11:34.389Z,0.00
2019-01-03T02:12:34.401Z,0.00
2019-01-03T02:13:34.402Z,0.00
2019-01-03T02:14:34.417Z,0.00
2019-01-03T02:15:34.418Z,0.00
2019-01-03T02:16:34.432Z,0.00
2019-01-03T02:17:34.444Z,0.00
2019-01-03T02:18:34.447Z,0.00
2019-01-03T02:19:34.472Z,0.00
2019-01-03T02:20:34.461Z,0.00
2019-01-03T02:21:34.474Z,0.00
2019-01-03T02:22:34.551Z,0.00
2019-01-03T02:23:34.488Z,0.00
2019-01-03T02:24:34.502Z,0.00
2019-01-03T02:25:34.503Z,0.00
2019-01-03T02:26:34.529Z,0.00
2019-01-03T02:27:34.532Z,0.00
2019-01-03T02:28:34.532Z,0.00
2019-01-03T02:29:34.544Z,0.00
2019-01-03T02:30:34.546Z,0.00
2019-01-03T02:31:34.559Z,0.00
2019-01-03T02:32:34.572Z,0.00
2019-01-03T02:33:34.575Z,0.00
2019-01-03T02:34:34.587Z,0.00
2019-01-03T02:35:34.599Z,0.00
2019-01-03T02:36:34.602Z,0.00
2019-01-03T02:37:34.615Z,0.00
2019-01-03T02:38:34.671Z,0.00
2019-01-03T02:39:34.630Z,0.00
2019-01-03T02:40:34.632Z,0.00
2019-01-03T02:41:34.647Z,0.00
2019-01-03T02:42:34.662Z,0.00
2019-01-03T02:43:34.658Z,0.00
2019-01-03T02:44:34.673Z,0.00
2019-01-03T02:45:34.673Z,0.00
2019-01-03T02:46:34.687Z,0.00
2019-01-03T02:47:34.704Z,0.00
2019-01-03T02:48:34.702Z,0.00
2019-01-03T02:49:34.721Z,0.00
2019-01-03T02:50:34.718Z,0.00
2019-01-03T02:51:34.733Z,0.00
2019-01-03T02:52:34.756Z,0.00
2019-01-03T02:53:34.744Z,0.00
2019-01-03T02:54:34.760Z,0.00
2019-01-03T02:55:34.762Z,0.00
2019-01-03T02:56:34.771Z,0.00
2019-01-03T02:57:34.788Z,0.00
2019-01-03T02:58:34.799Z,0.00
2019-01-03T02:59:34.801Z,0.00
2019-01-03T03:00:34.801Z,0.00
2019-01-03T03:01:34.824Z,0.00
2019-01-03T03:02:34.829Z,0.00
2019-01-03T03:03:34.831Z,0.00
2019-01-03T03:04:34.844Z,0.00
2019-01-03T03:05:34.845Z,0.00
2019-01-03T03:06:34.858Z,0.00
2019-01-03T03:07:34.871Z,0.00
2019-01-03T03:08:34.873Z,0.00
2019-01-03T03:09:34.885Z,0.00
2019-01-03T03:10:34.887Z,0.00
2019-01-03T03:11:34.901Z,0.00
2019-01-03T03:12:34.926Z,0.00
2019-01-03T03:13:34.915Z,0.00
2019-01-03T03:14:34.930Z,0.00
2019-01-03T03:15:34.929Z,0.00
2019-01-03T03:16:34.942Z,0.00
2019-01-03T03:17:34.956Z,0.00
2019-01-03T03:18:34.960Z,0.00
2019-01-03T03:19:34.986Z,0.00
2019-01-03T03:20:34.973Z,0.00
2019-01-03T03:21:34.987Z,0.00
2019-01-03T03:22:34.998Z,0.00
2019-01-03T03:23:34.999Z,0.00
2019-01-03T03:24:35.017Z,0.00
2019-01-03T03:25:35.017Z,0.00
2019-01-03T03:26:35.032Z,0.00
2019-01-03T03:27:35.041Z,0.00
2019-01-03T03:28:35.045Z,0.00
2019-01-03T03:29:35.057Z,0.00
2019-01-03T03:30:35.064Z,0.00
2019-01-03T03:31:35.073Z,0.00
2019-01-03T03:32:35.086Z,0.00
2019-01-03T03:33:35.090Z,0.00
2019-01-03T03:34:35.101Z,0.00
2019-01-03T03:35:35.102Z,0.00
2019-01-03T03:36:35.113Z,0.00
2019-01-03T03:37:35.130Z,0.00
2019-01-03T03:38:35.128Z,0.00
2019-01-03T03:39:35.141Z,0.00
2019-01-03T03:40:35.143Z,0.00
2019-01-03T03:41:35.157Z,0.00
2019-01-03T03:42:35.184Z,0.00
2019-01-03T03:43:35.170Z,0.00
2019-01-03T03:44:35.192Z,0.00
2019-01-03T03:45:35.197Z,0.00
2019-01-03T03:46:35.199Z,0.00
2019-01-03T03:47:35.212Z,0.00
2019-01-03T03:48:35.214Z,0.00
2019-01-03T03:49:35.233Z,0.00
2019-01-03T03:50:35.241Z,0.00
2019-01-03T03:51:35.242Z,0.00
2019-01-03T03:52:35.256Z,0.00
2019-01-03T03:53:35.256Z,0.00
2019-01-03T03:54:35.271Z,0.00
2019-01-03T03:55:35.282Z,0.00
2019-01-03T03:56:35.284Z,0.00
2019-01-03T03:57:35.298Z,0.00
2019-01-03T03:58:35.300Z,0.00
2019-01-03T03:59:35.315Z,0.00
2019-01-03T04:00:35.327Z,0.00
2019-01-03T04:01:35.329Z,0.00
2019-01-03T04:02:35.341Z,0.00
2019-01-03T04:03:35.355Z,0.00
2019-01-03T04:04:35.355Z,0.00
2019-01-03T04:05:35.371Z,0.00
2019-01-03T04:06:35.369Z,0.00
2019-01-03T04:07:35.383Z,0.00
2019-01-03T04:08:35.397Z,0.00
2019-01-03T04:09:35.399Z,0.00
2019-01-03T04:10:35.412Z,0.00
2019-01-03T04:11:35.413Z,0.00
2019-01-03T04:12:35.429Z,0.00
2019-01-03T04:13:35.439Z,0.00
2019-01-03T04:14:35.443Z,0.00
2019-01-03T04:15:35.453Z,0.00
2019-01-03T04:16:35.459Z,0.00
2019-01-03T04:17:35.469Z,0.00
2019-01-03T04:18:35.481Z,0.00
2019-01-03T04:19:35.486Z,0.00
2019-01-03T04:20:35.497Z,0.00
2019-01-03T04:21:35.509Z,0.00
2019-01-03T04:22:35.510Z,0.00
2019-01-03T04:23:35.525Z,0.00
2019-01-03T04:24:35.526Z,0.00
2019-01-03T04:25:35.540Z,0.00
2019-01-03T04:26:35.554Z,0.00
2019-01-03T04:27:35.556Z,0.00
2019-01-03T04:28:35.567Z,0.00
2019-01-03T04:29:35.569Z,0.00
2019-01-03T04:30:35.587Z,0.00
2019-01-03T04:31:35.598Z,0.00
2019-01-03T04:32:35.596Z,0.00
2019-01-03T04:33:35.611Z,0.00
2019-01-03T04:34:35.635Z,0.00
2019-01-03T04:35:35.624Z,0.00
2019-01-03T04:36:35.641Z,0.00
2019-01-03T04:37:35.641Z,0.00
2019-01-03T04:38:35.653Z,0.00
2019-01-03T04:39:35.668Z,0.00
2019-01-03T04:40:35.667Z,0.00
2019-01-03T04:41:35.680Z,0.00
2019-01-03T04:42:35.699Z,0.00
2019-01-03T04:43:35.699Z,0.00
2019-01-03T04:44:35.709Z,0.00
2019-01-03T04:45:35.713Z,0.00
2019-01-03T04:46:35.723Z,0.00
2019-01-03T04:47:35.737Z,0.00
2019-01-03T04:48:35.737Z,0.00
2019-01-03T04:49:35.751Z,0.00
2019-01-03T04:50:35.767Z,0.00
2019-01-03T04:51:35.766Z,0.00
2019-01-03T04:52:35.782Z,0.00
2019-01-03T04:53:35.782Z,0.00
2019-01-03T04:54:35.795Z,0.00
2019-01-03T04:55:35.816Z,0.00
2019-01-03T04:56:35.810Z,0.00
2019-01-03T04:57:35.822Z,0.00
2019-01-03T04:58:35.836Z,0.00
2019-01-03T04:59:35.837Z,0.00
2019-01-03T05:00:35.849Z,0.00
2019-01-03T05:01:35.860Z,0.00
2019-01-03T05:02:35.865Z,0.00
2019-01-03T05:03:35.878Z,0.00
2019-01-03T05:04:35.890Z,0.00
2019-01-03T05:05:35.894Z,0.00
2019-01-03T05:06:35.906Z,0.00
2019-01-03T05:07:35.908Z,0.00
2019-01-03T05:08:35.925Z,0.00
2019-01-03T05:09:35.939Z,0.00
2019-01-03T05:10:35.937Z,0.00
2019-01-03T05:11:35.950Z,0.00
2019-01-03T05:12:35.952Z,0.00
2019-01-03T05:13:35.994Z,0.00
2019-01-03T05:14:35.977Z,0.00
2019-01-03T05:15:35.978Z,0.00
2019-01-03T05:16:35.993Z,0.00
2019-01-03T05:17:36.008Z,0.00
2019-01-03T05:18:36.011Z,0.00
2019-01-03T05:19:36.021Z,0.00
2019-01-03T05:20:36.058Z,0.00
2019-01-03T05:21:36.035Z,0.00
2019-01-03T05:22:36.048Z,0.00
2019-01-03T05:23:36.049Z,0.00
2019-01-03T05:24:36.063Z,0.00
2019-01-03T05:25:36.079Z,0.00
2019-01-03T05:26:36.078Z,0.00
2019-01-03T05:27:36.091Z,0.00
2019-01-03T05:28:36.109Z,0.00
2019-01-03T05:29:36.105Z,0.00
2019-01-03T05:30:36.120Z,0.00
2019-01-03T05:31:36.131Z,0.00
2019-01-03T05:32:36.134Z,0.00
2019-01-03T05:33:36.147Z,0.00
2019-01-03T05:34:36.151Z,0.00
2019-01-03T05:35:36.162Z,0.00
2019-01-03T05:36:36.175Z,0.00
2019-01-03T05:37:36.176Z,0.00
2019-01-03T05:38:36.195Z,0.00
2019-01-03T05:39:36.207Z,0.00
2019-01-03T05:40:36.204Z,0.00
2019-01-03T05:41:36.217Z,0.00
2019-01-03T05:42:36.232Z,0.00
2019-01-03T05:43:36.232Z,0.00
2019-01-03T05:44:36.247Z,0.00
2019-01-03T05:45:36.260Z,0.00
2019-01-03T05:46:36.261Z,0.00
2019-01-03T05:47:36.273Z,0.00
2019-01-03T05:48:36.276Z,0.00
2019-01-03T05:49:36.289Z,0.00
2019-01-03T05:50:36.301Z,0.00
2019-01-03T05:51:36.303Z,0.00
2019-01-03T05:52:36.318Z,0.00
2019-01-03T05:53:36.330Z,0.00
2019-01-03T05:54:36.331Z,0.00
2019-01-03T05:55:36.345Z,0.00
2019-01-03T05:56:36.357Z,0.00
2019-01-03T05:57:36.363Z,0.00
2019-01-03T05:58:36.374Z,0.00
2019-01-03T05:59:36.385Z,0.00
2019-01-03T06:00:36.387Z,0.00
2019-01-03T06:01:36.401Z,0.00
2019-01-03T06:02:36.414Z,0.00
2019-01-03T06:03:36.416Z,0.00
2019-01-03T06:04:36.429Z,0.00
2019-01-03T06:05:36.442Z,0.00
2019-01-03T06:06:36.443Z,0.00
2019-01-03T06:07:36.458Z,0.00
2019-01-03T06:08:36.458Z,0.00
2019-01-03T06:09:36.472Z,0.00
2019-01-03T06:10:36.486Z,0.00
2019-01-03T06:11:36.487Z,0.00
2019-01-03T06:12:36.500Z,0.00
2019-01-03T06:13:36.516Z,0.00
2019-01-03T06:14:36.515Z,0.00
2019-01-03T06:15:36.572Z,0.00
2019-01-03T06:16:36.542Z,0.00
2019-01-03T06:17:36.542Z,0.00
2019-01-03T06:18:36.556Z,0.00
2019-01-03T06:19:36.570Z,0.00
2019-01-03T06:20:36.571Z,0.00
2019-01-03T06:21:36.583Z,0.00
2019-01-03T06:22:36.585Z,0.00
2019-01-03T06:23:36.599Z,0.00
2019-01-03T06:24:36.612Z,0.00
2019-01-03T06:25:36.628Z,0.00
2019-01-03T06:26:36.627Z,0.00
2019-01-03T06:27:36.640Z,0.00
2019-01-03T06:28:36.641Z,0.00
2019-01-03T06:29:36.656Z,0.00
2019-01-03T06:30:36.668Z,0.00
2019-01-03T06:31:36.669Z,0.00
2019-01-03T06:32:36.684Z,0.00
2019-01-03T06:33:36.696Z,0.00
2019-01-03T06:34:36.701Z,0.00
2019-01-03T06:35:36.712Z,0.00
2019-01-03T06:36:36.725Z,4.00
2019-01-03T06:37:36.725Z,4.00
2019-01-03T06:38:36.739Z,0.00
2019-01-03T06:39:36.752Z,0.00
2019-01-03T06:40:36.753Z,4.00
2019-01-03T06:41:36.768Z,4.00
2019-01-03T06:42:36.780Z,4.00
2019-01-03T06:43:36.782Z,8.00
2019-01-03T06:44:36.796Z,8.00
2019-01-03T06:45:36.808Z,8.00
2019-01-03T06:46:36.809Z,8.00
2019-01-03T06:47:36.824Z,8.00
2019-01-03T06:48:36.825Z,8.00
2019-01-03T06:49:36.843Z,12.00
2019-01-03T06:50:36.852Z,12.00
2019-01-03T06:51:36.865Z,16.00
2019-01-03T06:52:36.865Z,20.00
2019-01-03T06:53:36.879Z,24.00
2019-01-03T06:54:36.880Z,28.00
2019-01-03T06:55:36.894Z,28.00
2019-01-03T06:56:36.908Z,36.00
2019-01-03T06:57:36.908Z,40.00
2019-01-03T06:58:36.922Z,44.00
2019-01-03T06:59:36.936Z,52.00
2019-01-03T07:00:36.938Z,60.00
2019-01-03T07:01:36.950Z,68.00
2019-01-03T07:02:36.964Z,80.00
2019-01-03T07:03:36.965Z,88.00
2019-01-03T07:04:36.979Z,96.00
2019-01-03T07:05:36.994Z,108.00
2019-01-03T07:06:36.998Z,120.00
2019-01-03T07:07:37.006Z,136.00
2019-01-03T07:08:37.023Z,148.00
2019-01-03T07:09:37.024Z,160.00
2019-01-03T07:10:37.034Z,176.00
2019-01-03T07:11:37.048Z,192.00
2019-01-03T07:12:37.053Z,212.00
2019-01-03T07:13:37.062Z,228.00
2019-01-03T07:14:37.076Z,248.00
2019-01-03T07:15:37.081Z,268.00
2019-01-03T07:16:37.090Z,288.00
2019-01-03T07:17:37.105Z,312.00
2019-01-03T07:18:37.108Z,336.00
2019-01-03T07:19:37.118Z,356.00
2019-01-03T07:20:37.132Z,376.00
2019-01-03T07:21:37.135Z,396.00
2019-01-03T07:22:37.149Z,424.00
2019-01-03T07:23:37.161Z,444.00
2019-01-03T07:24:37.161Z,468.00
2019-01-03T07:25:37.175Z,484.00
2019-01-03T07:26:37.189Z,504.00
2019-01-03T07:27:37.192Z,528.00
2019-01-03T07:28:37.215Z,560.00
2019-01-03T07:29:37.217Z,596.00
2019-01-03T07:30:37.218Z,624.00
2019-01-03T07:31:37.231Z,652.00
2019-01-03T07:32:37.248Z,688.00
2019-01-03T07:33:37.246Z,728.00
2019-01-03T07:34:37.273Z,756.00
2019-01-03T07:35:37.274Z,776.00
2019-01-03T07:36:37.274Z,800.00
2019-01-03T07:37:37.290Z,816.00
2019-01-03T07:38:37.303Z,836.00
2019-01-03T07:39:37.303Z,864.00
2019-01-03T07:40:37.315Z,900.00
2019-01-03T07:41:37.329Z,932.00
2019-01-03T07:42:37.331Z,960.00
2019-01-03T07:43:37.352Z,988.00
2019-01-03T07:44:37.358Z,1024.00
2019-01-03T07:45:37.359Z,1068.00
2019-01-03T07:46:37.374Z,1128.00
2019-01-03T07:47:37.388Z,1176.00
2019-01-03T07:48:37.388Z,1224.00
2019-01-03T07:49:37.402Z,1272.00
2019-01-03T07:50:37.415Z,1324.00
2019-01-03T07:51:37.426Z,1368.00
2019-01-03T07:52:37.430Z,1400.00
2019-01-03T07:53:37.447Z,1420.00
2019-01-03T07:54:37.455Z,1448.00
2019-01-03T07:55:37.456Z,1496.00
2019-01-03T07:56:37.475Z,1564.00
2019-01-03T07:57:37.484Z,1612.00
2019-01-03T07:58:37.484Z,1652.00
2019-01-03T07:59:37.503Z,1704.00
2019-01-03T08:00:37.511Z,1700.00
2019-01-03T08:01:37.512Z,1656.00
2019-01-03T08:02:37.529Z,1616.00
2019-01-03T08:03:37.539Z,1588.00
2019-01-03T08:04:37.541Z,1556.00
2019-01-03T08:05:37.555Z,1572.00
2019-01-03T08:06:37.580Z,1672.00
2019-01-03T08:07:37.584Z,1780.00
2019-01-03T08:08:37.582Z,1812.00
2019-01-03T08:09:37.595Z,1808.00
2019-01-03T08:10:37.598Z,1864.00
2019-01-03T08:11:37.611Z,1976.00
2019-01-03T08:12:37.635Z,2048.00
2019-01-03T08:13:37.639Z,2184.00
2019-01-03T08:14:37.638Z,2360.00
2019-01-03T08:15:37.651Z,2440.00
2019-01-03T08:16:37.666Z,2416.00
2019-01-03T08:17:37.667Z,2404.00
2019-01-03T08:18:37.679Z,2428.00
2019-01-03T08:19:37.694Z,2476.00
2019-01-03T08:20:37.695Z,2476.00
2019-01-03T08:21:37.707Z,2476.00
2019-01-03T08:22:37.722Z,2564.00
2019-01-03T08:23:37.735Z,2684.00
2019-01-03T08:24:37.736Z,2808.00
2019-01-03T08:25:37.750Z,2832.00
2019-01-03T08:26:37.764Z,2684.00
2019-01-03T08:27:37.763Z,2576.00
2019-01-03T08:28:37.778Z,2580.00
2019-01-03T08:29:37.791Z,2524.00
2019-01-03T08:30:37.793Z,2424.00
2019-01-03T08:31:37.806Z,2280.00
2019-01-03T08:32:37.818Z,2264.00
2019-01-03T08:33:37.834Z,2372.00
2019-01-03T08:34:37.833Z,2308.00
2019-01-03T08:35:37.859Z,2260.00
2019-01-03T08:36:37.861Z,2280.00
2019-01-03T08:37:37.863Z,2372.00
2019-01-03T08:38:37.875Z,2504.00
2019-01-03T08:39:37.890Z,2736.00
2019-01-03T08:40:37.891Z,3064.00
2019-01-03T08:41:37.916Z,3276.00
2019-01-03T08:42:37.917Z,3456.00
2019-01-03T08:43:37.930Z,3716.00
2019-01-03T08:44:37.931Z,3788.00
2019-01-03T08:45:37.947Z,3972.00
2019-01-03T08:46:37.958Z,4212.00
2019-01-03T08:47:37.960Z,4120.00
2019-01-03T08:48:37.974Z,3840.00
2019-01-03T08:49:37.987Z,4152.00
2019-01-03T08:50:38.001Z,4480.00
2019-01-03T08:51:38.001Z,4288.00
2019-01-03T08:52:38.015Z,4056.00
2019-01-03T08:53:38.034Z,3980.00
2019-01-03T08:54:38.036Z,4208.00
2019-01-03T08:55:38.042Z,4400.00
2019-01-03T08:56:38.057Z,4212.00
2019-01-03T08:57:38.069Z,4040.00
2019-01-03T08:58:38.071Z,3748.00
2019-01-03T08:59:38.085Z,3724.00
2019-01-03T09:00:38.097Z,3716.00
2019-01-03T09:01:38.099Z,3716.00
2019-01-03T09:02:38.113Z,3568.00
2019-01-03T09:03:38.126Z,3428.00
2019-01-03T09:04:38.140Z,3280.00
2019-01-03T09:05:38.141Z,3176.00
2019-01-03T09:06:38.154Z,3292.00
2019-01-03T09:07:38.168Z,3276.00
2019-01-03T09:08:38.181Z,2904.00
2019-01-03T09:09:38.183Z,2560.00
2019-01-03T09:10:38.196Z,2344.00
2019-01-03T09:11:38.209Z,2796.00
2019-01-03T09:12:38.212Z,3364.00
2019-01-03T09:13:38.224Z,3268.00
2019-01-03T09:14:38.237Z,2688.00
2019-01-03T09:15:38.251Z,2652.00
2019-01-03T09:16:38.267Z,3240.00
2019-01-03T09:17:38.266Z,3808.00
2019-01-03T09:18:38.280Z,3932.00
2019-01-03T09:19:38.293Z,3700.00
2019-01-03T09:20:38.294Z,3740.00
2019-01-03T09:21:38.309Z,3788.00
2019-01-03T09:22:38.320Z,3716.00
2019-01-03T09:23:38.334Z,3764.00
2019-01-03T09:24:38.336Z,3972.00
2019-01-03T09:25:38.349Z,3900.00
2019-01-03T09:26:38.363Z,3700.00
2019-01-03T09:27:38.376Z,3672.00
2019-01-03T09:28:38.378Z,3492.00
2019-01-03T09:29:38.391Z,3432.00
2019-01-03T09:30:38.404Z,3960.00
2019-01-03T09:31:38.418Z,4032.00
2019-01-03T09:32:38.418Z,3792.00
2019-01-03T09:33:38.431Z,3700.00
2019-01-03T09:34:38.445Z,4048.00
2019-01-03T09:35:38.461Z,4032.00
2019-01-03T09:36:38.474Z,3516.00
2019-01-03T09:37:38.474Z,3176.00
2019-01-03T09:38:38.500Z,3360.00
2019-01-03T09:39:38.502Z,3656.00
2019-01-03T09:40:38.514Z,3732.00
2019-01-03T09:41:38.515Z,3792.00
2019-01-03T09:42:38.530Z,4088.00
2019-01-03T09:43:38.542Z,4012.00
2019-01-03T09:44:38.557Z,3908.00
2019-01-03T09:45:44.105Z,3760.00
2019-01-03T09:46:38.577Z,3820.00
2019-01-03T09:47:38.585Z,3672.00
2019-01-03T09:48:38.597Z,3424.00
2019-01-03T09:49:38.612Z,3404.00
2019-01-03T09:50:38.615Z,3640.00
2019-01-03T09:51:38.626Z,3612.00
2019-01-03T09:52:38.639Z,3344.00
2019-01-03T09:53:38.653Z,3200.00
2019-01-03T09:54:38.654Z,3436.00
2019-01-03T09:55:38.668Z,3948.00
2019-01-03T09:56:38.693Z,4168.00
2019-01-03T09:57:38.695Z,3440.00
2019-01-03T09:58:38.707Z,2740.00
2019-01-03T09:59:38.959Z,2368.00
2019-01-03T10:00:38.723Z,2076.00
2019-01-03T10:01:38.748Z,1960.00
2019-01-03T10:02:38.749Z,1964.00
2019-01-03T10:03:38.763Z,2096.00
2019-01-03T10:04:38.764Z,2348.00
2019-01-03T10:05:38.778Z,2384.00
2019-01-03T10:06:38.793Z,2344.00
2019-01-03T10:07:38.807Z,2392.00
2019-01-03T10:08:38.806Z,2588.00
2019-01-03T10:09:38.821Z,3128.00
2019-01-03T10:10:38.834Z,3520.00
2019-01-03T10:11:38.846Z,3324.00
2019-01-03T10:12:38.861Z,3236.00
2019-01-03T10:13:38.863Z,3328.00
2019-01-03T10:14:38.874Z,3376.00
2019-01-03T10:15:38.889Z,3504.00
2019-01-03T10:16:38.901Z,3328.00
2019-01-03T10:17:38.903Z,3108.00
2019-01-03T10:18:38.917Z,3160.00
2019-01-03T10:19:38.929Z,3432.00
2019-01-03T10:20:38.944Z,3916.00
2019-01-03T10:21:38.970Z,4688.00
2019-01-03T10:22:38.970Z,5728.00
2019-01-03T10:23:38.972Z,6280.00
2019-01-03T10:24:38.986Z,6364.00
2019-01-03T10:25:38.999Z,6704.00
2019-01-03T10:26:39.012Z,7048.00
2019-01-03T10:27:39.026Z,7136.00
2019-01-03T10:28:39.027Z,6892.00
2019-01-03T10:29:39.040Z,6692.00
2019-01-03T10:30:39.054Z,7192.00
2019-01-03T10:31:39.067Z,6972.00
2019-01-03T10:32:39.069Z,6796.00
2019-01-03T10:33:39.082Z,7020.00
2019-01-03T10:34:39.094Z,6824.00
2019-01-03T10:35:39.109Z,6484.00
2019-01-03T10:36:39.125Z,6428.00
2019-01-03T10:37:39.136Z,5888.00
2019-01-03T10:38:39.149Z,5860.00
2019-01-03T10:39:39.204Z,6012.00
2019-01-03T10:40:39.165Z,5236.00
2019-01-03T10:41:39.177Z,3640.00
2019-01-03T10:42:39.194Z,2904.00
2019-01-03T10:43:39.206Z,2664.00
2019-01-03T10:44:39.206Z,2932.00
2019-01-03T10:45:39.219Z,3208.00
2019-01-03T10:46:39.232Z,3184.00
2019-01-03T10:47:39.246Z,2892.00
2019-01-03T10:48:39.260Z,2460.00
2019-01-03T10:49:39.273Z,2412.00
2019-01-03T10:50:39.286Z,2544.00
2019-01-03T10:51:39.288Z,2712.00
2019-01-03T10:52:39.304Z,3384.00
2019-01-03T10:53:39.315Z,3628.00
2019-01-03T10:54:39.331Z,3232.00
2019-01-03T10:55:39.341Z,3444.00
2019-01-03T10:56:39.355Z,3928.00
2019-01-03T10:57:39.362Z,5016.00
2019-01-03T10:58:39.372Z,5552.00
2019-01-03T10:59:39.384Z,5888.00
2019-01-03T11:00:39.396Z,6492.00
2019-01-03T11:01:39.411Z,7212.00
2019-01-03T11:02:39.426Z,7640.00
2019-01-03T11:03:39.427Z,7836.00
2019-01-03T11:04:39.439Z,7852.00
2019-01-03T11:05:39.452Z,8088.00
2019-01-03T11:06:39.467Z,7952.00
2019-01-03T11:07:39.492Z,7056.00
2019-01-03T11:08:39.493Z,6428.00
2019-01-03T11:09:39.506Z,5940.00
2019-01-03T11:10:39.507Z,5848.00
2019-01-03T11:11:39.522Z,5708.00
2019-01-03T11:12:39.533Z,5896.00
2019-01-03T11:13:39.552Z,6208.00
2019-01-03T11:14:39.561Z,6856.00
2019-01-03T11:15:39.575Z,7504.00
2019-01-03T11:16:39.577Z,6984.00
2019-01-03T11:17:39.592Z,6004.00
2019-01-03T11:18:39.603Z,5708.00
2019-01-03T11:19:39.617Z,5784.00
2019-01-03T11:20:39.631Z,6464.00
2019-01-03T11:21:39.644Z,6452.00
2019-01-03T11:22:39.658Z,5768.00
2019-01-03T11:23:39.659Z,5616.00
2019-01-03T11:24:39.672Z,5484.00
2019-01-03T11:25:39.686Z,5240.00
2019-01-03T11:26:39.698Z,5004.00
2019-01-03T11:27:39.714Z,4788.00
2019-01-03T11:28:39.725Z,4868.00
2019-01-03T11:29:39.727Z,5756.00
2019-01-03T11:30:39.741Z,6080.00
2019-01-03T11:31:39.755Z,5920.00
2019-01-03T11:32:39.768Z,6380.00
2019-01-03T11:33:39.781Z,6220.00
2019-01-03T11:34:39.801Z,6144.00
2019-01-03T11:35:39.809Z,6132.00
2019-01-03T11:36:39.809Z,6388.00
2019-01-03T11:37:39.823Z,6472.00
2019-01-03T11:38:39.836Z,6468.00
2019-01-03T11:39:39.851Z,6424.00
2019-01-03T11:40:39.863Z,6216.00
2019-01-03T11:41:39.878Z,6568.00
2019-01-03T11:42:39.890Z,6764.00
2019-01-03T11:43:39.892Z,6884.00
2019-01-03T11:44:39.906Z,6840.00
2019-01-03T11:45:39.920Z,6640.00
2019-01-03T11:46:39.933Z,6732.00
2019-01-03T11:47:39.958Z,6724.00
2019-01-03T11:48:39.961Z,6884.00
2019-01-03T11:49:39.961Z,7136.00
2019-01-03T11:50:39.973Z,7324.00
2019-01-03T11:51:39.988Z,7084.00
2019-01-03T11:52:40.000Z,7060.00
2019-01-03T11:53:40.015Z,7128.00
2019-01-03T11:54:40.027Z,7120.00
2019-01-03T11:55:40.042Z,7120.00
2019-01-03T11:56:40.044Z,7108.00
2019-01-03T11:57:40.055Z,7128.00
2019-01-03T11:58:40.069Z,7116.00
2019-01-03T11:59:40.083Z,7340.00
2019-01-03T12:00:40.098Z,7132.00
2019-01-03T12:01:40.111Z,6928.00
2019-01-03T12:02:40.124Z,6888.00
2019-01-03T12:03:40.138Z,6948.00
2019-01-03T12:04:40.139Z,6820.00
2019-01-03T12:05:40.152Z,6652.00
2019-01-03T12:06:40.165Z,6512.00
2019-01-03T12:07:40.179Z,6320.00
2019-01-03T12:08:40.192Z,6260.00
2019-01-03T12:09:40.208Z,6320.00
2019-01-03T12:10:40.223Z,6356.00
2019-01-03T12:11:40.237Z,6456.00
2019-01-03T12:12:40.235Z,6344.00
2019-01-03T12:13:40.247Z,6224.00
2019-01-03T12:14:40.262Z,6388.00
2019-01-03T12:15:40.276Z,6456.00
2019-01-03T12:16:40.289Z,6416.00
2019-01-03T12:17:40.301Z,6508.00
2019-01-03T12:18:40.316Z,6292.00
2019-01-03T12:19:40.329Z,6164.00
2019-01-03T12:20:40.330Z,6128.00
2019-01-03T12:21:40.344Z,6036.00
2019-01-03T12:22:40.369Z,6152.00
2019-01-03T12:23:40.370Z,6404.00
2019-01-03T12:24:40.385Z,6516.00
2019-01-03T12:25:40.398Z,6428.00
2019-01-03T12:26:40.412Z,6340.00
2019-01-03T12:27:40.425Z,6192.00
2019-01-03T12:28:40.437Z,6308.00
2019-01-03T12:29:40.454Z,6324.00
2019-01-03T12:30:40.453Z,6260.00
2019-01-03T12:31:40.465Z,6252.00
2019-01-03T12:32:40.483Z,6324.00
2019-01-03T12:33:40.495Z,6188.00
2019-01-03T12:34:40.506Z,6108.00
2019-01-03T12:35:40.520Z,6196.00
2019-01-03T12:36:40.535Z,6172.00
2019-01-03T12:37:40.562Z,6220.00
2019-01-03T12:38:40.560Z,6020.00
2019-01-03T12:39:40.562Z,6112.00
2019-01-03T12:40:40.577Z,6028.00
2019-01-03T12:41:40.590Z,5960.00
2019-01-03T12:42:40.604Z,5840.00
2019-01-03T12:43:40.616Z,5856.00
2019-01-03T12:44:40.629Z,5752.00
2019-01-03T12:45:40.645Z,5792.00